Time;durP1;ratioP1;P1;durP2;ratioP2;P2;SDS_P1;SDS_P2;PMS_P1;PMS_P2;Temp;Humidity;BMP_temperature;BMP_pressure;BME280_temperature;BME280_humidity;BME280_pressure;Samples;Min_cycle;Max_cycle;Signal;HPM_P1;HPM_P2
2021/03/31 00:00:40;;;;;;;33.35;21.58;;;;;;;30.52;55.23;100624.06;5064213;27;66149;-29
2021/03/31 00:03:15;;;;;;;28.80;20.35;;;;;;;30.62;56.14;100628.94;5057081;28;69172;-28
2021/03/31 00:05:44;;;;;;;29.92;20.17;;;;;;;30.68;56.64;100622.66;5063853;27;66030;-28
2021/03/31 00:08:19;;;;;;;23.10;18.27;;;;;;;30.68;56.82;100628.91;5057680;27;69800;-29
2021/03/31 00:10:51;;;;;;;26.48;18.83;;;;;;;30.75;57.60;100638.81;5060227;27;65270;-30
2021/03/31 00:13:23;;;;;;;23.02;17.42;;;;;;;30.67;57.72;100627.25;5059855;27;69164;-29
2021/03/31 00:15:56;;;;;;;25.50;17.00;;;;;;;30.80;58.81;100641.72;5066379;28;65954;-27
2021/03/31 00:18:25;;;;;;;21.35;15.68;;;;;;;30.86;58.63;100641.63;5068762;28;69202;-28
2021/03/31 00:20:55;;;;;;;24.85;14.88;;;;;;;30.89;58.80;100651.19;5059855;28;65440;-29
2021/03/31 00:23:27;;;;;;;27.60;15.63;;;;;;;30.90;59.06;100652.88;5061329;28;69351;-30
2021/03/31 00:25:57;;;;;;;28.02;15.02;;;;;;;30.90;58.69;100653.69;5062171;27;66403;-30
2021/03/31 00:28:27;;;;;;;23.10;14.52;;;;;;;30.99;58.56;100659.63;5064348;27;68971;-31
2021/03/31 00:30:58;;;;;;;18.63;13.10;;;;;;;30.98;58.41;100649.84;5071633;27;67051;-29
2021/03/31 00:33:33;;;;;;;23.27;13.18;;;;;;;31.03;57.89;100658.09;5069930;28;70135;-29
2021/03/31 00:36:05;;;;;;;19.02;12.35;;;;;;;31.02;57.89;100659.16;5068557;27;65972;-30
2021/03/31 00:38:37;;;;;;;17.30;13.13;;;;;;;31.02;58.19;100661.88;5060395;27;70338;-30
2021/03/31 00:41:07;;;;;;;16.00;12.23;;;;;;;31.01;57.83;100665.66;5065258;28;65994;-30
2021/03/31 00:43:36;;;;;;;17.02;12.80;;;;;;;31.03;57.88;100677.06;5071761;27;70094;-30
2021/03/31 00:46:09;;;;;;;13.35;11.98;;;;;;;31.03;57.74;100679.78;5073775;27;66503;-31
2021/03/31 00:48:38;;;;;;;13.88;11.60;;;;;;;31.03;56.85;100674.34;5063279;27;69951;-29
2021/03/31 00:51:08;;;;;;;13.23;11.98;;;;;;;31.00;56.78;100682.94;5066402;28;65763;-29
2021/03/31 00:53:44;;;;;;;13.38;11.85;;;;;;;31.04;57.02;100691.47;5067203;28;70369;-30
2021/03/31 00:56:13;;;;;;;16.60;11.82;;;;;;;31.00;57.23;100696.47;5065583;28;66461;-30
2021/03/31 00:58:43;;;;;;;14.38;11.73;;;;;;;31.00;56.99;100707.31;5068241;27;69467;-29
2021/03/31 01:01:12;;;;;;;12.30;11.18;;;;;;;31.00;57.13;100703.78;5070811;27;66168;-30
2021/03/31 01:03:42;;;;;;;13.35;11.95;;;;;;;31.00;57.27;100712.72;5068929;27;69727;-31
2021/03/31 01:06:12;;;;;;;12.55;11.40;;;;;;;31.00;57.00;100718.16;5068792;27;66007;-30
2021/03/31 01:08:41;;;;;;;12.27;11.43;;;;;;;31.02;56.88;100707.94;5069334;27;69168;-31
2021/03/31 01:11:22;;;;;;;14.20;11.38;;;;;;;30.97;57.21;100709.66;5066664;27;65341;-30
2021/03/31 01:14:00;;;;;;;10.98;10.10;;;;;;;31.06;56.58;100725.38;5057829;28;69290;-30
2021/03/31 01:16:49;;;;;;;13.75;11.10;;;;;;;31.03;57.03;100725.00;5058504;27;66051;-29
2021/03/31 01:19:34;;;;;;;12.20;11.10;;;;;;;31.08;56.99;100733.28;5067560;27;70379;-30
2021/03/31 01:22:35;;;;;;;12.13;11.02;;;;;;;31.09;56.77;100734.94;5065317;28;66031;-31
2021/03/31 01:25:31;;;;;;;11.90;10.98;;;;;;;31.07;56.60;100728.94;5064261;27;69753;-29
2021/03/31 01:28:42;;;;;;;12.57;10.77;;;;;;;31.11;56.03;100733.66;5071031;27;65314;-30
2021/03/31 01:31:38;;;;;;;11.95;10.93;;;;;;;31.16;55.85;100728.41;5046204;27;69971;-30
2021/03/31 01:34:35;;;;;;;12.55;11.27;;;;;;;31.22;55.59;100731.25;5054352;27;66657;-30
2021/03/31 01:37:15;;;;;;;15.27;11.00;;;;;;;31.23;55.62;100714.78;5059455;28;69831;-31
2021/03/31 01:39:47;;;;;;;17.58;12.10;;;;;;;31.32;55.76;100720.72;5064447;27;65084;-31
2021/03/31 01:42:18;;;;;;;13.07;11.90;;;;;;;31.31;55.84;100727.19;5062963;27;70335;-30
2021/03/31 01:44:52;;;;;;;12.85;11.65;;;;;;;31.31;55.52;100735.31;5058732;27;66174;-31
2021/03/31 01:47:23;;;;;;;11.73;10.63;;;;;;;31.23;55.72;100722.06;5061735;27;70526;-29
2021/03/31 01:49:54;;;;;;;12.23;11.17;;;;;;;31.34;56.00;100734.84;5062878;27;66732;-29
2021/03/31 01:52:25;;;;;;;12.00;10.93;;;;;;;31.35;55.96;100737.34;5066446;27;70498;-31
2021/03/31 01:54:56;;;;;;;13.60;11.55;;;;;;;31.24;55.93;100729.97;5068101;27;66313;-30
2021/03/31 01:57:26;;;;;;;14.57;10.80;;;;;;;31.37;55.57;100750.69;5066742;27;69214;-31
2021/03/31 01:59:58;;;;;;;11.98;10.90;;;;;;;31.38;55.62;100741.53;5071857;27;65228;-30
2021/03/31 02:02:29;;;;;;;10.63;9.77;;;;;;;31.38;55.30;100741.53;5057849;28;70651;-31
2021/03/31 02:04:59;;;;;;;11.55;10.45;;;;;;;31.42;55.33;100750.84;5068887;27;65793;-30
2021/03/31 02:07:29;;;;;;;13.00;10.23;;;;;;;31.44;55.70;100756.88;5071122;27;70146;-30
2021/03/31 02:09:59;;;;;;;12.63;10.55;;;;;;;31.38;55.09;100741.53;5072189;27;66866;-30
2021/03/31 02:12:29;;;;;;;10.50;9.57;;;;;;;31.47;55.20;100753.72;5068353;27;71035;-30
2021/03/31 02:15:01;;;;;;;11.77;10.48;;;;;;;31.49;54.94;100748.91;5057048;27;65893;-30
2021/03/31 02:17:35;;;;;;;11.05;9.90;;;;;;;31.46;55.06;100740.41;5068424;27;69272;-29
2021/03/31 02:20:06;;;;;;;11.90;9.65;;;;;;;31.58;54.62;100744.81;5068261;27;65272;-31
2021/03/31 02:22:36;;;;;;;11.20;9.98;;;;;;;31.60;55.05;100745.41;5058166;28;69809;-29
2021/03/31 02:25:07;;;;;;;14.57;10.50;;;;;;;31.64;54.68;100750.38;5074391;27;66266;-29
2021/03/31 02:27:37;;;;;;;11.68;10.27;;;;;;;31.66;54.55;100743.66;5066305;27;70204;-30
2021/03/31 02:30:09;;;;;;;11.18;10.25;;;;;;;31.58;54.54;100731.25;5061891;27;66211;-31
2021/03/31 02:32:40;;;;;;;14.93;10.27;;;;;;;31.72;54.73;100748.16;5062916;27;69955;-31
2021/03/31 02:35:18;;;;;;;10.25;9.45;;;;;;;31.75;54.42;100746.88;5066955;27;66249;-30
2021/03/31 02:37:59;;;;;;;13.02;9.63;;;;;;;31.74;54.57;100743.34;5069525;27;69395;-30
2021/03/31 02:40:31;;;;;;;10.50;9.60;;;;;;;31.71;54.20;100729.44;5068109;27;65384;-31
2021/03/31 02:43:02;;;;;;;10.93;9.93;;;;;;;31.78;54.34;100741.81;5065491;27;70868;-29
2021/03/31 02:45:32;;;;;;;11.05;9.93;;;;;;;31.78;54.48;100746.41;5066778;27;67104;-30
2021/03/31 02:48:05;;;;;;;10.88;9.95;;;;;;;31.86;53.95;100740.69;5071555;27;69656;-30
2021/03/31 02:50:36;;;;;;;10.88;10.07;;;;;;;31.88;54.00;100748.59;5074268;28;66479;-30
2021/03/31 02:53:06;;;;;;;10.68;9.73;;;;;;;31.91;54.02;100746.28;5074613;27;70112;-31
2021/03/31 02:55:37;;;;;;;10.90;9.88;;;;;;;31.93;53.90;100743.31;5072581;27;65387;-31
2021/03/31 02:58:08;;;;;;;10.43;9.43;;;;;;;31.97;54.06;100739.09;5074696;27;69854;-30
2021/03/31 03:00:38;;;;;;;10.70;9.77;;;;;;;32.00;53.42;100738.63;5061989;27;65110;-31
2021/03/31 03:03:10;;;;;;;12.85;9.68;;;;;;;32.04;53.82;100734.41;5073178;27;69135;-30
2021/03/31 03:05:40;;;;;;;11.57;10.43;;;;;;;32.08;53.92;100735.59;5074414;27;66221;-31
2021/03/31 03:08:10;;;;;;;11.05;10.05;;;;;;;32.10;53.59;100735.38;5072060;27;70193;-29
2021/03/31 03:10:40;;;;;;;10.88;10.07;;;;;;;32.04;53.25;100721.66;5072713;27;64901;-29
2021/03/31 03:13:13;;;;;;;;;;;;;;;32.06;53.97;100732.28;5074305;27;44397;-30
2021/03/31 03:15:42;;;;;;;14.98;11.20;;;;;;;32.19;52.92;100737.50;5071497;27;66170;-29
2021/03/31 03:18:13;;;;;;;13.95;10.93;;;;;;;32.20;53.10;100722.03;5071592;27;69665;-29
2021/03/31 03:20:42;;;;;;;11.75;10.75;;;;;;;32.21;53.50;100718.28;5070023;27;65889;-30
2021/03/31 03:23:13;;;;;;;11.65;10.75;;;;;;;32.24;53.09;100723.25;5072558;27;70405;-29
2021/03/31 03:25:46;;;;;;;13.00;11.45;;;;;;;32.23;53.05;100730.56;5069893;28;65852;-29
2021/03/31 03:28:21;;;;;;;11.80;10.93;;;;;;;32.27;53.09;100731.75;5074261;27;69648;-30
2021/03/31 03:30:52;;;;;;;12.73;11.10;;;;;;;32.29;52.64;100717.94;5070510;27;66788;-30
2021/03/31 03:33:25;;;;;;;11.85;10.93;;;;;;;32.36;53.10;100715.13;5073023;27;69281;-29
2021/03/31 03:35:56;;;;;;;12.32;11.45;;;;;;;32.39;52.70;100703.78;5066602;27;66532;-31
2021/03/31 03:38:25;;;;;;;13.27;11.30;;;;;;;32.42;52.24;100715.00;5071350;27;69782;-31
2021/03/31 03:40:54;;;;;;;11.20;10.32;;;;;;;32.33;52.41;100683.84;5069735;27;65455;-30
2021/03/31 03:43:24;;;;;;;12.73;11.35;;;;;;;32.45;52.30;100692.78;5056871;28;69919;-29
2021/03/31 03:45:58;;;;;;;12.27;11.23;;;;;;;32.45;52.65;100687.38;5074895;27;66225;-30
2021/03/31 03:48:29;;;;;;;13.40;11.25;;;;;;;32.47;52.52;100687.19;5072080;27;70008;-30
2021/03/31 03:50:58;;;;;;;11.75;10.57;;;;;;;32.50;52.70;100686.69;5054236;27;64958;-30
2021/03/31 03:53:28;;;;;;;11.43;10.43;;;;;;;32.51;52.54;100679.38;5067744;28;69369;-30
2021/03/31 03:56:00;;;;;;;11.88;10.82;;;;;;;32.55;52.40;100673.25;5076046;27;65549;-30
2021/03/31 03:58:29;;;;;;;12.05;10.88;;;;;;;32.59;52.30;100670.88;5071985;28;69273;-31
2021/03/31 04:00:59;;;;;;;11.13;10.32;;;;;;;32.61;52.20;100668.75;5078487;27;66134;-31
2021/03/31 04:03:28;;;;;;;12.43;11.43;;;;;;;32.63;51.96;100661.22;5076030;27;69312;-31
2021/03/31 04:05:58;;;;;;;12.52;11.45;;;;;;;32.68;51.88;100655.88;5062097;27;65358;-31
2021/03/31 04:08:27;;;;;;;11.57;10.57;;;;;;;32.67;52.35;100651.50;5067804;27;69674;-30
2021/03/31 04:11:01;;;;;;;13.00;11.82;;;;;;;32.67;51.76;100640.63;5074528;28;66237;-30
2021/03/31 04:13:32;;;;;;;10.95;10.18;;;;;;;32.68;52.15;100626.84;5075626;27;69898;-30
2021/03/31 04:16:12;;;;;;;12.75;11.55;;;;;;;32.66;51.78;100630.84;5073516;27;66070;-31
2021/03/31 04:18:43;;;;;;;13.68;11.75;;;;;;;32.78;51.57;100626.22;5073334;27;69913;-30
2021/03/31 04:21:14;;;;;;;12.23;11.35;;;;;;;32.78;51.89;100619.97;5069676;27;65480;-30
2021/03/31 04:23:43;;;;;;;12.68;11.68;;;;;;;32.83;51.65;100618.19;5076260;27;72145;-29
2021/03/31 04:26:16;;;;;;;12.00;11.07;;;;;;;32.76;51.40;100593.03;5075731;27;66178;-30
2021/03/31 04:28:46;;;;;;;13.13;11.90;;;;;;;32.89;51.34;100600.09;5065580;27;68861;-31
2021/03/31 04:31:15;;;;;;;12.75;11.65;;;;;;;32.91;51.34;100609.66;5076576;27;65290;-29
2021/03/31 04:33:51;;;;;;;11.43;10.52;;;;;;;32.95;51.80;100604.56;5074817;28;69287;-29
2021/03/31 04:36:21;;;;;;;12.35;11.45;;;;;;;32.99;51.12;100599.44;5075677;27;66616;-34
2021/03/31 04:38:51;;;;;;;13.80;12.00;;;;;;;33.01;51.46;100583.78;5075970;27;69889;-30
2021/03/31 04:41:20;;;;;;;13.00;11.75;;;;;;;33.00;50.94;100585.66;5073691;27;66613;-30
2021/03/31 04:43:50;;;;;;;12.73;11.57;;;;;;;33.04;51.01;100577.84;5076873;27;69956;-30
2021/03/31 04:46:19;;;;;;;13.20;11.85;;;;;;;33.03;51.25;100570.78;5068164;27;66105;-30
2021/03/31 04:48:49;;;;;;;13.20;12.27;;;;;;;33.05;51.32;100565.94;5071761;27;69835;-30
2021/03/31 04:51:18;;;;;;;13.50;12.45;;;;;;;33.03;51.37;100558.00;5074599;27;67003;-29
2021/03/31 04:53:48;;;;;;;13.38;11.63;;;;;;;33.07;51.26;100544.75;5074487;27;69245;-29
2021/03/31 04:56:17;;;;;;;14.25;12.88;;;;;;;33.07;51.24;100539.31;5074403;27;66281;-30
2021/03/31 04:58:48;;;;;;;15.50;11.75;;;;;;;33.08;51.58;100528.22;5061482;27;70177;-30
2021/03/31 05:01:19;;;;;;;13.55;12.50;;;;;;;33.08;51.00;100525.50;5069582;27;65304;-29
2021/03/31 05:03:48;;;;;;;13.57;12.40;;;;;;;33.12;51.18;100517.69;5073433;27;70743;-30
2021/03/31 05:06:18;;;;;;;12.75;11.65;;;;;;;33.10;51.40;100511.69;5065066;28;67378;-30
2021/03/31 05:08:50;;;;;;;;;;;;;;;33.03;51.34;100509.09;5074824;27;70100;-30
2021/03/31 05:11:20;;;;;;;12.57;11.48;;;;;;;33.18;50.78;100496.84;5073997;27;66355;-30
2021/03/31 05:13:49;;;;;;;12.38;11.48;;;;;;;33.18;50.99;100494.94;5077444;27;69519;-29
2021/03/31 05:16:18;;;;;;;14.13;12.75;;;;;;;33.20;51.18;100492.81;5057863;28;67553;-29
2021/03/31 05:18:48;;;;;;;12.65;11.70;;;;;;;33.20;51.19;100487.38;5075570;27;69071;-31
2021/03/31 05:21:20;;;;;;;13.35;12.35;;;;;;;33.19;50.54;100474.88;5074747;27;66210;-30
2021/03/31 05:23:50;;;;;;;12.43;11.52;;;;;;;33.25;51.03;100484.75;5076554;27;70170;-29
2021/03/31 05:26:19;;;;;;;13.18;12.18;;;;;;;33.27;50.75;100468.22;5073229;27;66847;-30
2021/03/31 05:28:49;;;;;;;12.52;11.63;;;;;;;33.27;51.02;100460.88;5074608;27;69184;-30
2021/03/31 05:31:18;;;;;;;13.52;12.57;;;;;;;33.30;51.10;100449.50;5060384;27;65626;-29
2021/03/31 05:33:48;;;;;;;13.10;12.15;;;;;;;33.35;50.91;100452.31;5058441;28;70324;-30
2021/03/31 05:36:20;;;;;;;13.55;12.52;;;;;;;33.37;50.75;100450.16;5055714;28;65732;-31
2021/03/31 05:38:52;;;;;;;13.50;12.50;;;;;;;33.39;50.51;100436.31;5065208;27;70693;-29
2021/03/31 05:41:22;;;;;;;12.75;11.85;;;;;;;33.43;50.88;100442.06;5056457;27;66133;-30
2021/03/31 05:43:52;;;;;;;14.05;13.02;;;;;;;33.42;50.52;100424.13;5070130;27;70037;-30
2021/03/31 05:46:22;;;;;;;13.50;12.40;;;;;;;33.42;50.53;100424.13;5061948;28;66068;-29
2021/03/31 05:48:52;;;;;;;14.25;12.93;;;;;;;33.48;50.67;100423.13;5059295;27;69631;-30
2021/03/31 05:51:21;;;;;;;13.25;12.10;;;;;;;33.51;50.67;100425.34;5062611;27;66340;-30
2021/03/31 05:53:57;;;;;;;13.20;12.10;;;;;;;33.54;50.11;100405.84;5064034;28;70937;-30
2021/03/31 05:56:33;;;;;;;13.68;12.57;;;;;;;33.56;50.34;100407.25;5076354;27;65457;-30
2021/03/31 05:59:06;;;;;;;13.02;11.93;;;;;;;33.62;50.13;100399.97;5066995;27;69329;-30
2021/03/31 06:01:38;;;;;;;14.10;12.93;;;;;;;33.62;50.27;100391.81;5068865;27;65642;-30
2021/03/31 06:04:08;;;;;;;12.98;12.27;;;;;;;33.64;50.37;100389.69;5067295;27;68763;-30
2021/03/31 06:06:37;;;;;;;13.63;12.48;;;;;;;33.63;50.35;100377.16;5055468;28;66035;-29
2021/03/31 06:09:08;;;;;;;13.02;12.02;;;;;;;33.70;50.02;100388.66;5064127;27;69512;-29
2021/03/31 06:11:57;;;;;;;12.57;11.75;;;;;;;33.64;50.22;100367.91;5066159;28;66189;-29
2021/03/31 06:14:37;;;;;;;12.63;11.82;;;;;;;33.72;50.25;100374.81;5055565;27;70065;-30
2021/03/31 06:17:13;;;;;;;13.02;12.00;;;;;;;33.77;50.06;100362.13;5056348;28;65535;-30
2021/03/31 06:19:45;;;;;;;12.73;11.98;;;;;;;33.64;50.09;100335.28;5054934;27;69994;-29
2021/03/31 06:22:48;;;;;;;;;;;;;;;33.70;50.02;100356.03;5065032;27;66063;-31
2021/03/31 06:25:24;;;;;;;12.75;11.90;;;;;;;33.73;49.75;100347.34;5070493;27;69641;-29
2021/03/31 06:27:57;;;;;;;13.65;12.68;;;;;;;33.87;49.97;100346.97;5068949;28;65465;-30
2021/03/31 06:30:28;;;;;;;14.18;12.93;;;;;;;33.89;49.75;100339.41;5055342;27;69890;-30
2021/03/31 06:33:00;;;;;;;13.00;12.10;;;;;;;33.89;50.05;100337.50;5074788;27;65938;-29
2021/03/31 06:35:31;;;;;;;13.95;12.68;;;;;;;33.91;49.97;100335.34;5070664;27;69240;-29
2021/03/31 06:38:10;;;;;;;13.93;12.60;;;;;;;33.93;49.68;100332.34;5090645;27;65204;-29
2021/03/31 06:40:47;;;;;;;14.63;13.32;;;;;;;34.01;49.64;100321.84;5074351;27;70552;-30
2021/03/31 06:43:31;;;;;;;13.95;12.75;;;;;;;34.01;49.88;100319.13;5069447;27;67019;-30
2021/03/31 06:46:07;;;;;;;13.95;13.02;;;;;;;34.01;49.64;100307.41;5062671;27;70429;-29
2021/03/31 06:48:43;;;;;;;14.45;13.07;;;;;;;34.01;49.70;100305.50;5069675;27;66681;-29
2021/03/31 06:51:29;;;;;;;14.27;12.93;;;;;;;33.99;49.60;100304.13;5075626;28;70063;-29
2021/03/31 06:54:21;;;;;;;13.38;12.50;;;;;;;34.00;49.72;100297.63;5072227;27;66154;-29
2021/03/31 06:56:57;;;;;;;14.60;13.30;;;;;;;34.12;49.50;100290.16;5073893;27;69404;-29
2021/03/31 06:59:30;;;;;;;13.95;12.65;;;;;;;34.06;49.46;100277.56;5073112;27;66197;-35
2021/03/31 07:02:04;;;;;;;14.63;13.32;;;;;;;34.16;49.24;100279.59;5074521;27;70113;-30
2021/03/31 07:04:35;;;;;;;13.93;12.82;;;;;;;34.20;49.53;100267.91;5072316;27;65532;-30
2021/03/31 07:07:36;;;;;;;14.43;13.43;;;;;;;34.21;49.37;100266.84;5074657;27;69777;-30
2021/03/31 07:10:17;;;;;;;13.50;12.45;;;;;;;34.30;49.19;100267.19;5070469;27;66607;-30
2021/03/31 07:12:51;;;;;;;13.90;12.90;;;;;;;34.24;49.04;100241.84;5072659;27;69854;-29
2021/03/31 07:15:24;;;;;;;13.98;13.07;;;;;;;34.30;49.24;100245.41;5068863;27;65222;-30
2021/03/31 07:18:01;;;;;;;13.85;12.90;;;;;;;34.37;48.88;100250.63;5064079;27;69705;-30
2021/03/31 07:20:32;;;;;;;14.68;13.48;;;;;;;34.39;48.87;100237.59;5066440;28;66029;-29
2021/03/31 07:23:01;;;;;;;14.20;12.82;;;;;;;34.39;49.04;100248.50;5074106;27;70057;-29
2021/03/31 07:25:31;;;;;;;13.98;12.98;;;;;;;34.40;49.05;100244.69;5071759;27;65654;-30
2021/03/31 07:28:01;;;;;;;14.90;12.73;;;;;;;34.46;48.95;100238.19;5060319;28;69024;-30
2021/03/31 07:30:32;;;;;;;15.45;13.73;;;;;;;34.46;48.94;100243.63;5072010;27;65851;-30
2021/03/31 07:33:13;;;;;;;14.20;13.18;;;;;;;34.42;48.93;100227.00;5072770;27;69257;-29
2021/03/31 07:35:42;;;;;;;15.00;13.57;;;;;;;34.47;48.79;100228.94;5072755;28;66942;-30
2021/03/31 07:38:14;;;;;;;15.82;14.52;;;;;;;34.44;48.90;100213.94;5067832;27;70178;-29
2021/03/31 07:40:45;;;;;;;14.65;13.63;;;;;;;34.55;48.75;100208.56;5074188;27;65459;-31
2021/03/31 07:43:25;;;;;;;14.27;13.27;;;;;;;34.51;48.59;100205.53;5069150;27;70272;-30
2021/03/31 07:46:07;;;;;;;14.27;13.30;;;;;;;34.55;48.45;100206.69;5069267;27;66425;-30
2021/03/31 07:48:39;;;;;;;18.73;14.20;;;;;;;34.61;48.58;100202.94;5072084;27;70073;-29
2021/03/31 07:51:20;;;;;;;14.48;13.27;;;;;;;34.58;48.59;100198.00;5074270;27;65301;-30
2021/03/31 07:53:51;;;;;;;14.43;13.32;;;;;;;34.49;48.94;100169.56;5068611;27;70958;-30
2021/03/31 07:56:35;;;;;;;14.60;13.38;;;;;;;34.67;48.59;100196.44;5067093;27;65734;-29
2021/03/31 07:59:09;;;;;;;14.70;13.13;;;;;;;34.74;48.73;100196.19;5059087;27;69979;-30
2021/03/31 08:01:53;;;;;;;14.60;13.55;;;;;;;34.76;48.22;100182.31;5073466;27;66565;-30
2021/03/31 08:04:25;;;;;;;14.25;13.15;;;;;;;34.79;48.49;100182.59;5071954;27;69783;-30
2021/03/31 08:06:56;;;;;;;15.73;14.20;;;;;;;34.82;48.06;100186.72;5069056;27;66421;-30
2021/03/31 08:09:30;;;;;;;14.80;13.70;;;;;;;34.82;48.29;100183.97;5072176;27;68683;-30
2021/03/31 08:12:06;;;;;;;14.35;13.43;;;;;;;34.84;48.30;100176.38;5065891;27;65220;-30
2021/03/31 08:14:40;;;;;;;14.70;13.38;;;;;;;34.87;48.07;100173.13;5071561;28;70302;-30
2021/03/31 08:17:28;;;;;;;14.60;13.52;;;;;;;34.83;48.47;100159.22;5059126;28;66179;-29
2021/03/31 08:19:59;;;;;;;15.27;13.95;;;;;;;34.91;48.03;100164.16;5074513;27;69382;-29
2021/03/31 08:22:34;;;;;;;15.25;14.00;;;;;;;34.92;48.12;100164.97;5072835;27;68537;-30
2021/03/31 08:25:26;;;;;;;15.27;14.07;;;;;;;34.92;47.67;100154.06;5067694;27;69792;-31
2021/03/31 08:28:04;;;;;;;14.83;13.73;;;;;;;34.88;48.11;100147.50;5068983;28;66172;-29
2021/03/31 08:30:37;;;;;;;14.35;13.25;;;;;;;35.04;48.26;100167.47;5064814;27;69818;-30
2021/03/31 08:33:07;;;;;;;16.85;14.18;;;;;;;35.03;47.98;100166.66;5074240;27;66195;-30
2021/03/31 08:35:37;;;;;;;16.20;14.88;;;;;;;35.07;48.22;100162.34;5071683;27;70326;-30
2021/03/31 08:38:18;;;;;;;15.15;14.05;;;;;;;35.11;48.22;100168.09;5072496;27;65650;-29
2021/03/31 08:40:47;;;;;;;15.25;14.05;;;;;;;35.08;48.18;100161.25;5066128;27;69572;-30
2021/03/31 08:43:21;;;;;;;14.60;13.43;;;;;;;35.13;47.94;100166.75;5076421;27;65636;-29
2021/03/31 08:45:54;;;;;;;15.65;14.05;;;;;;;35.19;48.08;100172.19;5072716;28;69805;-30
2021/03/31 08:48:55;;;;;;;13.68;12.73;;;;;;;35.00;48.41;100155.47;5074047;27;66405;-32
2021/03/31 08:51:25;;;;;;;13.68;12.77;;;;;;;35.22;47.98;100163.50;5029383;27;69292;-29
2021/03/31 08:54:03;;;;;;;18.70;13.98;;;;;;;35.24;48.08;100164.84;5073281;28;66377;-30
2021/03/31 08:56:32;;;;;;;14.88;13.57;;;;;;;35.27;48.14;100161.63;5076836;27;69866;-30
2021/03/31 08:59:02;;;;;;;15.25;13.63;;;;;;;35.34;48.05;100169.53;5088184;27;65465;-29
2021/03/31 09:01:32;;;;;;;14.95;13.52;;;;;;;35.36;48.16;100161.91;5070843;27;70339;-30
2021/03/31 09:04:19;;;;;;;14.32;12.73;;;;;;;35.17;48.06;100136.22;5070802;27;66295;-31
2021/03/31 09:06:49;;;;;;;14.93;13.60;;;;;;;35.38;48.18;100157.00;5055632;28;70020;-30
2021/03/31 09:09:18;;;;;;;13.93;12.13;;;;;;;35.39;48.18;100153.19;5069908;27;65846;-30
2021/03/31 09:11:48;;;;;;;14.77;13.60;;;;;;;35.32;48.38;100138.97;5056865;28;70105;-32
2021/03/31 09:14:22;;;;;;;14.48;13.23;;;;;;;35.35;48.25;100152.06;5069500;28;67032;-30
2021/03/31 09:16:53;;;;;;;14.93;13.50;;;;;;;35.45;47.96;100165.75;5059308;27;70526;-30
2021/03/31 09:19:31;;;;;;;14.70;13.32;;;;;;;35.47;47.80;100160.03;5060350;28;66170;-30
2021/03/31 09:22:11;;;;;;;15.57;14.02;;;;;;;35.44;48.10;100155.94;5071550;27;71175;-29
2021/03/31 09:24:42;;;;;;;14.82;13.57;;;;;;;35.51;48.29;100159.22;5067171;28;66461;-30
2021/03/31 09:27:18;;;;;;;15.52;13.80;;;;;;;35.38;47.58;100135.16;5066434;28;68221;-30
2021/03/31 09:29:51;;;;;;;13.52;12.50;;;;;;;35.50;47.97;100146.69;5065918;28;66192;-29
2021/03/31 09:32:30;;;;;;;13.45;12.63;;;;;;;35.52;48.03;100154.56;5062518;27;70064;-33
2021/03/31 09:35:13;;;;;;;19.30;13.73;;;;;;;35.47;48.05;100152.66;5062146;27;65386;-30
2021/03/31 09:38:06;;;;;;;13.57;12.25;;;;;;;35.51;48.14;100156.47;5062092;27;70553;-29
2021/03/31 09:40:40;;;;;;;13.50;12.52;;;;;;;35.55;48.17;100168.50;5065721;28;66059;-30
2021/03/31 09:43:22;;;;;;;13.75;12.77;;;;;;;35.51;48.24;100161.94;5061095;27;70371;-30
2021/03/31 09:45:56;;;;;;;14.05;12.93;;;;;;;35.52;48.43;100163.59;5060228;28;66043;-29
2021/03/31 09:48:25;;;;;;;13.35;12.35;;;;;;;35.51;48.21;100161.94;5062717;27;70707;-29
2021/03/31 09:50:56;;;;;;;13.32;12.15;;;;;;;35.51;48.08;100172.03;5067896;28;66200;-30
2021/03/31 09:53:26;;;;;;;13.70;12.57;;;;;;;35.48;48.27;100159.75;5061748;27;69190;-29
2021/03/31 09:55:56;;;;;;;13.85;12.75;;;;;;;35.49;48.28;100164.09;5073029;28;65531;-30
2021/03/31 09:58:28;;;;;;;14.93;13.20;;;;;;;35.49;48.09;100168.75;5076621;27;70185;-30
2021/03/31 10:00:58;;;;;;;13.45;12.40;;;;;;;35.51;48.30;100167.41;5055209;27;65413;-29
2021/03/31 10:03:30;;;;;;;13.75;12.45;;;;;;;35.45;49.04;100168.47;5062570;27;70231;-30
2021/03/31 10:06:15;;;;;;;13.60;12.27;;;;;;;35.29;48.55;100153.16;5064795;27;66224;-30
2021/03/31 10:08:50;;;;;;;13.80;12.45;;;;;;;35.46;48.35;100170.09;5060267;28;70230;-29
2021/03/31 10:11:31;;;;;;;14.25;12.73;;;;;;;35.44;48.73;100177.75;5069804;28;66801;-29
2021/03/31 10:14:05;;;;;;;17.98;12.75;;;;;;;35.45;50.00;100173.13;5056775;28;70714;-30
2021/03/31 10:16:39;;;;;;;14.35;12.25;;;;;;;35.35;51.32;100173.88;5058892;27;66507;-29
2021/03/31 10:19:10;;;;;;;16.80;14.02;;;;;;;35.36;50.82;100170.09;5063728;27;69576;-31
2021/03/31 10:21:41;;;;;;;17.98;13.95;;;;;;;35.32;51.43;100179.88;5056518;27;66095;-29
2021/03/31 10:24:13;;;;;;;25.80;12.88;;;;;;;35.29;51.87;100185.88;5065567;27;70843;-29
2021/03/31 10:26:51;;;;;;;20.60;13.43;;;;;;;35.29;51.57;100186.69;5058211;27;66072;-29
2021/03/31 10:29:32;;;;;;;22.73;12.88;;;;;;;35.30;52.02;100182.88;5058546;27;68994;-32
2021/03/31 10:32:18;;;;;;;18.13;13.02;;;;;;;35.29;51.90;100194.06;5060155;27;66438;-33
2021/03/31 10:34:52;;;;;;;19.98;12.95;;;;;;;35.25;53.08;100201.13;5062875;27;69445;-34
2021/03/31 10:37:36;;;;;;;14.43;13.18;;;;;;;35.12;52.82;100183.34;5075655;27;66199;-33
2021/03/31 10:48:38;;;;;;;17.90;11.50;;;;;;;35.20;53.34;100225.66;5059479;27;65614;-35
2021/03/31 10:53:57;;;;;;;15.07;11.48;;;;;;;35.14;53.37;100233.78;5062595;28;65205;-35
2021/03/31 10:56:28;;;;;;;16.75;10.73;;;;;;;35.13;53.61;100234.91;5058209;27;69525;-34
2021/03/31 10:58:58;;;;;;;18.70;10.48;;;;;;;35.08;53.15;100234.88;5065018;28;66513;-34
2021/03/31 11:01:27;;;;;;;15.40;11.73;;;;;;;35.06;53.11;100231.56;5061717;28;69148;-34
2021/03/31 11:03:57;;;;;;;13.55;11.25;;;;;;;35.07;53.10;100233.19;5056655;28;65899;-34
2021/03/31 11:06:28;;;;;;;15.80;11.80;;;;;;;35.03;53.39;100229.34;5060854;27;70311;-33
2021/03/31 11:08:57;;;;;;;20.13;12.13;;;;;;;35.00;53.39;100232.59;5055095;28;67258;-34
2021/03/31 11:11:27;;;;;;;13.50;12.07;;;;;;;34.83;53.66;100221.06;5073845;28;70533;-33
2021/03/31 11:13:57;;;;;;;16.33;12.25;;;;;;;34.93;53.46;100234.72;5063590;27;67897;-34
2021/03/31 11:16:27;;;;;;;19.90;12.10;;;;;;;34.83;53.43;100230.06;5056545;27;69480;-34
2021/03/31 11:27:10;;;;;;;15.40;11.63;;;;;;;34.75;54.34;100235.19;5065262;27;69927;-34
2021/03/31 11:29:39;;;;;;;18.13;11.48;;;;;;;34.67;54.44;100223.69;5067129;28;65969;-35
2021/03/31 11:32:08;;;;;;;20.52;11.88;;;;;;;34.67;54.28;100229.13;5065390;28;70265;-35
2021/03/31 11:34:38;;;;;;;18.48;12.23;;;;;;;34.64;54.64;100240.53;5070188;27;67779;-33
2021/03/31 11:37:08;;;;;;;20.88;11.73;;;;;;;34.62;54.88;100231.81;5062646;28;70342;-34
2021/03/31 11:39:38;;;;;;;13.10;11.77;;;;;;;34.55;54.99;100225.75;5066987;27;65292;-34
2021/03/31 11:42:07;;;;;;;23.20;12.30;;;;;;;34.60;55.20;100238.59;5065699;27;69943;-33
2021/03/31 11:44:36;;;;;;;14.95;12.30;;;;;;;34.62;54.98;100242.69;5065929;27;66052;-34
2021/03/31 11:47:06;;;;;;;22.45;11.70;;;;;;;34.58;55.38;100241.59;5062839;27;70462;-34
2021/03/31 11:49:35;;;;;;;16.98;12.90;;;;;;;34.55;55.66;100241.25;5059954;27;65297;-34
2021/03/31 11:52:05;;;;;;;13.98;11.90;;;;;;;34.52;55.62;100250.78;5057379;27;69773;-34
2021/03/31 11:54:34;;;;;;;16.15;12.55;;;;;;;34.53;55.68;100249.69;5064446;27;65410;-35
2021/03/31 11:57:05;;;;;;;17.63;12.88;;;;;;;34.55;55.89;100252.97;5068980;27;69158;-35